Ivanhoe, Minnesota
Current Conditions -  °F | °C
As of 12:13 AM on Thursday 29 Jan 2015 (Local Time) from KCNB Reporting Station
Overcast Overcast  
Wind Chill: 19°   Ceiling: 1300
Heat Index: 32°   Visibility: 10mi
Dew Point: 30°   Wind: 22mph
Humidity: 94%   Direction: 330°NNW
Pressure: 30.02"   Gusts: 35mph
Location:  44.46°N, 96.25°W
Report Text: KCNB 290613Z AUTO 33019G30KT 10SM OVC013 00/M01 A3002 RMK AO2 T00001009
Loading
Personal Weather Stations






























Interactive Weather Map New forecast layout! Learn more

10-Day Weather Forecast

Advertisements
Track Severe Weather on mobile